首页
METAR-TAF:

METAR-TAF

机场 :

巴塞罗那-埃尔普拉特机场

巴塞罗那, 西班牙

纬度: 41-17N, 经度: 002-04E, 海拔: 4米

当前天气观测

该预报发布于43分钟前的09:00 UTC
风速6节,风向西转西南,在西南西北之间变化
温度 18°C
湿度 49%
气压 1015 hPa
能见度10公里或以上
少量云层高于2500英尺

METAR: LEBL 150900Z 25006KT 220V310 9999 FEW025 18/07 Q1015 NOSIG

时间: 11:43 (09:43 UTC)

预报

该预报发布于4小时和43分钟前的05:00 UTC
预报有效从15日的 06点(UTC)到 16日的 06点(UTC)
风速10节,风向西转西北
能见度10公里或以上
少量云层高于1000英尺
几率 40% :
短暂存在
从 15日的 06点(UTC)到 15日的 08点(UTC)
风速15节,风向多变,有时为30节阵风
成为
从 15日的 07点(UTC)到 15日的 09点(UTC)
风速14节,风向西
成为
从 15日的 15点(UTC)到 15日的 17点(UTC)
风速5节,风向西转西北

TAF: LEBL 150500Z 1506/1606 30010KT 9999 FEW010 TX24/1512Z TN15/1506Z PROB40 TEMPO 1506/1508 VRB15G30KT BECMG 1507/1509 28014KT BECMG 1515/1517 29005KT

超过4000个机场的气象观测和天气预报(METAR&TAF报告)。

可查询的气象台以黄色和红色小点在地图上表示。

将鼠标移到小点上方,可查看气象台名称。

然后点击查看天气观测和预报。

如需切换地图:点击带黑十字的绿色按钮放大地图;点击带横线的绿色按钮缩小地图;或者点击绿色箭头查看邻近地区的地图。


METAR-TAF: